createdAt,value
2022-09-14T00:01:25.645Z,23.90
2022-09-14T00:04:28.715Z,23.90
2022-09-14T00:07:30.863Z,23.90
2022-09-14T00:10:33.209Z,24.00
2022-09-14T00:13:36.510Z,23.90
2022-09-14T00:16:41.777Z,23.90
2022-09-14T00:19:44.006Z,23.90
2022-09-14T00:22:46.101Z,23.90
2022-09-14T00:25:48.322Z,23.90
2022-09-14T00:28:56.389Z,23.90
2022-09-14T00:31:58.898Z,23.90
2022-09-14T00:35:01.158Z,23.90
2022-09-14T00:38:03.317Z,23.90
2022-09-14T00:41:07.393Z,23.90
2022-09-14T00:44:12.782Z,23.90
2022-09-14T00:47:17.015Z,23.90
2022-09-14T00:50:20.162Z,23.90
2022-09-14T00:53:22.947Z,23.90
2022-09-14T00:56:25.885Z,23.90
2022-09-14T00:59:31.069Z,23.80
2022-09-14T01:02:34.035Z,23.90
2022-09-14T01:06:08.088Z,23.90
2022-09-14T01:09:25.628Z,23.80
2022-09-14T01:12:58.788Z,23.80
2022-09-14T01:16:15.768Z,23.80
2022-09-14T01:19:47.062Z,23.80
2022-09-14T01:23:22.566Z,23.80
2022-09-14T01:26:47.413Z,23.80
2022-09-14T01:29:52.567Z,23.80
2022-09-14T01:33:19.449Z,23.80
2022-09-14T01:36:23.283Z,23.80
2022-09-14T01:39:29.483Z,23.80
2022-09-14T01:42:33.504Z,23.80
2022-09-14T01:45:38.464Z,23.80
2022-09-14T01:49:11.600Z,23.80
2022-09-14T01:52:21.852Z,23.80
2022-09-14T01:55:46.131Z,23.80
2022-09-14T01:59:01.756Z,23.80
2022-09-14T02:02:17.118Z,23.80
2022-09-14T02:05:39.466Z,23.80
2022-09-14T02:08:41.735Z,23.80
2022-09-14T02:11:44.650Z,23.80
2022-09-14T02:14:47.507Z,23.70
2022-09-14T02:17:50.056Z,23.80
2022-09-14T02:21:00.986Z,23.70
2022-09-14T02:24:03.544Z,23.70
2022-09-14T02:27:07.504Z,23.70
2022-09-14T02:30:10.310Z,23.70
2022-09-14T02:33:40.733Z,23.70
2022-09-14T02:37:16.761Z,23.70
2022-09-14T02:40:36.557Z,23.70
2022-09-14T02:43:53.689Z,23.70
2022-09-14T02:47:04.500Z,23.70
2022-09-14T02:50:37.220Z,23.70
2022-09-14T02:53:59.844Z,23.70
2022-09-14T02:57:03.593Z,23.70
2022-09-14T03:00:06.229Z,23.70
2022-09-14T03:03:10.413Z,23.70
2022-09-14T03:06:12.678Z,23.70
2022-09-14T03:09:14.849Z,23.70
2022-09-14T03:12:17.085Z,23.70
2022-09-14T03:15:19.335Z,23.70
2022-09-14T03:18:21.590Z,23.70
2022-09-14T03:21:23.951Z,23.70
2022-09-14T03:24:26.055Z,23.70
2022-09-14T03:27:28.373Z,23.70
2022-09-14T03:30:30.976Z,23.70
2022-09-14T03:33:33.352Z,23.60
2022-09-14T03:36:35.460Z,23.70
2022-09-14T03:39:37.943Z,23.70
2022-09-14T03:42:49.473Z,23.60
2022-09-14T03:45:51.623Z,23.60
2022-09-14T03:48:55.354Z,23.60
2022-09-14T03:51:59.775Z,23.70
2022-09-14T03:55:02.478Z,23.60
2022-09-14T03:58:04.688Z,23.60
2022-09-14T04:01:09.719Z,23.70
2022-09-14T04:04:11.966Z,23.60
2022-09-14T04:07:15.797Z,23.60
2022-09-14T04:10:17.991Z,23.60
2022-09-14T04:13:20.149Z,23.60
2022-09-14T04:16:22.592Z,23.60
2022-09-14T04:19:24.801Z,23.60
2022-09-14T04:22:26.958Z,23.60
2022-09-14T04:25:29.120Z,23.60
2022-09-14T04:28:31.247Z,23.60
2022-09-14T04:31:33.601Z,23.60
2022-09-14T04:34:35.985Z,23.60
2022-09-14T04:37:38.179Z,23.60
2022-09-14T04:40:43.600Z,23.60
2022-09-14T04:43:46.418Z,23.60
2022-09-14T04:46:48.643Z,23.50
2022-09-14T04:49:53.772Z,23.50
2022-09-14T04:52:55.960Z,23.50
2022-09-14T04:56:02.413Z,23.50
2022-09-14T04:59:05.858Z,23.50
2022-09-14T05:02:07.988Z,23.50
2022-09-14T05:05:10.357Z,23.50
2022-09-14T05:08:12.526Z,23.40
2022-09-14T05:11:17.952Z,23.40
2022-09-14T05:14:20.175Z,23.40
2022-09-14T05:17:22.414Z,23.30
2022-09-14T05:20:24.625Z,23.30
2022-09-14T05:23:26.870Z,23.30
2022-09-14T05:26:31.120Z,23.30
2022-09-14T05:29:36.251Z,23.30
2022-09-14T05:32:38.370Z,23.30
2022-09-14T05:35:40.512Z,23.20
2022-09-14T05:38:43.193Z,23.20
2022-09-14T05:41:45.351Z,23.20
2022-09-14T05:44:47.657Z,23.20
2022-09-14T05:47:49.890Z,23.20
2022-09-14T05:51:07.421Z,23.20
2022-09-14T05:54:11.709Z,23.20
2022-09-14T05:57:13.863Z,23.20
2022-09-14T06:00:16.819Z,23.20
2022-09-14T06:03:19.171Z,23.20
2022-09-14T06:06:22.578Z,23.20
2022-09-14T06:09:24.748Z,23.20
2022-09-14T06:12:27.497Z,23.20
2022-09-14T06:15:29.603Z,23.30
2022-09-14T06:18:34.208Z,23.30
2022-09-14T06:21:36.472Z,23.30
2022-09-14T06:24:38.595Z,23.30
2022-09-14T06:27:40.683Z,23.30
2022-09-14T06:30:44.365Z,23.30
2022-09-14T06:33:47.607Z,23.30
2022-09-14T06:36:49.732Z,23.30
2022-09-14T06:39:51.890Z,23.30
2022-09-14T06:42:54.220Z,23.30
2022-09-14T06:45:57.401Z,23.30
2022-09-14T06:49:08.075Z,23.30
2022-09-14T06:52:10.204Z,23.30
2022-09-14T06:55:12.334Z,23.30
2022-09-14T06:58:14.757Z,23.30
2022-09-14T07:01:19.989Z,23.30
2022-09-14T07:04:22.268Z,23.30
2022-09-14T07:07:24.467Z,23.30
2022-09-14T07:10:28.299Z,23.30
2022-09-14T07:13:31.204Z,23.30
2022-09-14T07:16:35.229Z,23.30
2022-09-14T07:19:37.453Z,23.30
2022-09-14T07:22:39.653Z,23.30
2022-09-14T07:25:42.491Z,23.30
2022-09-14T07:28:46.151Z,23.30
2022-09-14T07:31:51.083Z,23.30
2022-09-14T07:34:53.224Z,23.30
2022-09-14T07:37:55.425Z,23.30
2022-09-14T07:41:00.906Z,23.30
2022-09-14T07:44:06.240Z,23.30
2022-09-14T07:47:08.465Z,23.30
2022-09-14T07:50:10.664Z,23.40
2022-09-14T07:53:13.262Z,23.40
2022-09-14T07:56:17.053Z,23.30
2022-09-14T07:59:36.439Z,23.30
2022-09-14T08:02:39.253Z,23.40
2022-09-14T08:05:41.380Z,23.40
2022-09-14T08:08:48.135Z,23.40
2022-09-14T08:11:50.184Z,23.40
2022-09-14T08:14:53.741Z,23.40
2022-09-14T08:17:55.783Z,23.40
2022-09-14T08:21:02.766Z,23.40
2022-09-14T08:24:05.373Z,23.40
2022-09-14T08:27:07.560Z,23.40
2022-09-14T08:30:10.375Z,23.40
2022-09-14T08:33:12.643Z,23.40
2022-09-14T08:36:18.269Z,23.40
2022-09-14T08:39:20.481Z,23.40
2022-09-14T08:42:25.209Z,23.40
2022-09-14T08:45:29.056Z,23.40
2022-09-14T08:48:35.705Z,23.40
2022-09-14T08:51:37.913Z,23.50
2022-09-14T08:54:41.085Z,23.40
2022-09-14T08:57:56.574Z,23.40
2022-09-14T09:01:16.407Z,23.40
2022-09-14T09:04:28.912Z,23.40
2022-09-14T09:07:48.975Z,23.40
2022-09-14T09:10:54.385Z,23.40
2022-09-14T09:13:57.872Z,23.40
2022-09-14T09:17:04.738Z,23.40
2022-09-14T09:20:07.446Z,23.40
2022-09-14T09:23:19.743Z,23.40
2022-09-14T09:26:32.911Z,23.40
2022-09-14T09:29:35.184Z,23.40
2022-09-14T09:32:46.251Z,23.40
2022-09-14T09:36:16.076Z,23.40
2022-09-14T09:39:19.703Z,23.50
2022-09-14T09:42:25.136Z,23.40
2022-09-14T09:45:46.445Z,23.50
2022-09-14T09:48:49.405Z,23.40
2022-09-14T09:51:53.474Z,23.50
2022-09-14T09:54:57.479Z,23.50
2022-09-14T09:58:28.542Z,23.50
2022-09-14T10:01:33.450Z,23.50
2022-09-14T10:04:35.773Z,23.50
2022-09-14T10:08:09.338Z,23.50
2022-09-14T10:11:36.651Z,23.50
2022-09-14T10:14:40.588Z,23.50
2022-09-14T10:17:56.146Z,23.50
2022-09-14T10:21:08.253Z,23.50
2022-09-14T10:24:20.565Z,23.50
2022-09-14T10:27:54.615Z,23.50
2022-09-14T10:31:12.309Z,23.60
2022-09-14T10:34:20.900Z,23.60
2022-09-14T10:37:51.359Z,23.60
2022-09-14T10:41:37.935Z,23.60
2022-09-14T10:45:04.394Z,23.60
2022-09-14T10:48:30.981Z,23.60
2022-09-14T10:52:14.217Z,23.60
2022-09-14T10:55:42.237Z,23.60
2022-09-14T10:59:02.859Z,23.60
2022-09-14T11:03:00.146Z,23.60
2022-09-14T11:06:18.186Z,23.60
2022-09-14T11:09:44.732Z,23.60
2022-09-14T11:13:12.966Z,23.60
2022-09-14T11:16:29.905Z,23.60
2022-09-14T11:20:18.847Z,23.60
2022-09-14T11:23:44.301Z,23.60
2022-09-14T11:27:08.373Z,23.70
2022-09-14T11:30:16.697Z,23.60
2022-09-14T11:33:31.023Z,23.70
2022-09-14T11:36:41.574Z,23.70
2022-09-14T11:39:55.383Z,23.70
2022-09-14T11:42:57.585Z,23.70
2022-09-14T11:46:17.823Z,23.70
2022-09-14T11:50:02.897Z,23.70
2022-09-14T11:53:16.202Z,23.70
2022-09-14T11:56:31.283Z,23.70
2022-09-14T11:59:42.455Z,23.70
2022-09-14T12:03:01.888Z,23.70
2022-09-14T12:06:38.404Z,23.70
2022-09-14T12:09:41.537Z,23.70
2022-09-14T12:12:53.759Z,23.70
2022-09-14T12:16:05.167Z,23.70
2022-09-14T12:19:17.872Z,23.70
2022-09-14T12:22:36.645Z,23.70
2022-09-14T12:25:40.322Z,23.70
2022-09-14T12:28:50.452Z,23.70
2022-09-14T12:31:52.657Z,23.80
2022-09-14T12:35:32.229Z,23.80
2022-09-14T12:38:37.970Z,23.70
2022-09-14T12:41:40.252Z,23.70
2022-09-14T12:44:43.590Z,23.80
2022-09-14T12:47:52.625Z,23.80
2022-09-14T12:50:55.118Z,23.70
2022-09-14T12:54:05.996Z,23.80
2022-09-14T12:57:24.559Z,23.80
2022-09-14T13:00:29.965Z,23.80
2022-09-14T13:03:48.849Z,23.80
2022-09-14T13:06:52.781Z,23.80
2022-09-14T13:09:57.152Z,23.80
2022-09-14T13:13:02.264Z,23.80
2022-09-14T13:16:07.325Z,23.80
2022-09-14T13:19:25.945Z,23.80
2022-09-14T13:22:31.835Z,23.80
2022-09-14T13:25:37.168Z,23.80
2022-09-14T13:28:45.087Z,23.80
2022-09-14T13:31:47.676Z,23.80
2022-09-14T13:34:50.202Z,23.80
2022-09-14T13:37:53.889Z,23.80
2022-09-14T13:41:04.138Z,23.80
2022-09-14T13:44:06.475Z,23.80
2022-09-14T13:47:11.516Z,23.90
2022-09-14T13:50:14.765Z,23.90
2022-09-14T13:53:43.142Z,23.80
2022-09-14T13:56:45.419Z,23.90
2022-09-14T14:03:52.595Z,23.80
2022-09-14T14:10:49.058Z,23.90
2022-09-14T14:13:51.407Z,23.90
2022-09-14T14:17:22.834Z,23.90
2022-09-14T14:20:31.283Z,24.00
2022-09-14T14:23:33.705Z,24.00
2022-09-14T14:26:35.944Z,24.10
2022-09-14T14:29:38.179Z,24.10
2022-09-14T14:32:40.331Z,24.10
2022-09-14T14:46:26.719Z,24.20
2022-09-14T14:49:29.162Z,24.20
2022-09-14T14:56:15.379Z,24.20
2022-09-14T14:59:20.603Z,24.20
2022-09-14T15:02:22.977Z,24.20
2022-09-14T15:05:26.112Z,24.20
2022-09-14T15:08:28.263Z,24.20
2022-09-14T15:11:31.903Z,24.20
2022-09-14T15:14:34.065Z,24.20
2022-09-14T15:17:36.218Z,24.20
2022-09-14T15:20:38.792Z,24.20
2022-09-14T15:23:41.160Z,24.20
2022-09-14T15:26:43.644Z,24.30
2022-09-14T15:29:45.827Z,24.20
2022-09-14T15:32:47.948Z,24.20
2022-09-14T15:35:56.083Z,24.30
2022-09-14T15:38:58.418Z,24.30
2022-09-14T15:42:00.750Z,24.30
2022-09-14T15:45:03.920Z,24.30
2022-09-14T15:48:06.515Z,24.30
2022-09-14T15:51:11.945Z,24.30
2022-09-14T15:54:14.362Z,24.30
2022-09-14T15:57:16.569Z,24.30
2022-09-14T16:00:19.681Z,24.30
2022-09-14T16:03:21.800Z,24.30
2022-09-14T16:06:24.690Z,24.30
2022-09-14T16:09:26.867Z,24.40
2022-09-14T16:12:29.082Z,24.30
2022-09-14T16:15:31.298Z,24.30
2022-09-14T16:18:33.967Z,24.30
2022-09-14T16:21:36.771Z,24.30
2022-09-14T16:24:39.344Z,24.30
2022-09-14T16:27:42.232Z,24.30
2022-09-14T16:30:45.200Z,24.30
2022-09-14T16:33:49.615Z,24.30
2022-09-14T16:36:52.384Z,24.30
2022-09-14T16:39:54.729Z,24.30
2022-09-14T16:42:56.900Z,24.30
2022-09-14T16:46:10.932Z,24.30
2022-09-14T16:49:13.137Z,24.30
2022-09-14T16:52:15.424Z,24.30
2022-09-14T16:55:17.646Z,24.30
2022-09-14T16:58:20.279Z,24.30
2022-09-14T17:01:28.813Z,24.30
2022-09-14T17:04:31.156Z,24.30
2022-09-14T17:07:33.279Z,24.30
2022-09-14T17:10:35.705Z,24.30
2022-09-14T17:13:38.016Z,24.30
2022-09-14T17:16:40.653Z,24.30
2022-09-14T17:19:43.819Z,24.30
2022-09-14T17:22:46.122Z,24.30
2022-09-14T17:25:48.408Z,24.30
2022-09-14T17:28:52.227Z,24.30
2022-09-14T17:31:55.634Z,24.30
2022-09-14T17:34:57.898Z,24.30
2022-09-14T17:38:00.045Z,24.30
2022-09-14T17:41:07.597Z,24.30
2022-09-14T17:44:12.285Z,24.30
2022-09-14T17:47:14.463Z,24.30
2022-09-14T17:50:16.885Z,24.30
2022-09-14T17:53:20.913Z,24.30
2022-09-14T17:56:25.935Z,24.30
2022-09-14T17:59:28.257Z,24.30
2022-09-14T18:02:30.478Z,24.30
2022-09-14T18:05:33.102Z,24.30
2022-09-14T18:08:36.059Z,24.30
2022-09-14T18:11:38.550Z,24.30
2022-09-14T18:14:40.765Z,24.30
2022-09-14T18:17:44.860Z,24.30
2022-09-14T18:20:47.012Z,24.30
2022-09-14T18:23:50.622Z,24.30
2022-09-14T18:26:53.387Z,24.30
2022-09-14T18:29:55.977Z,24.30
2022-09-14T18:32:58.130Z,24.30
2022-09-14T18:36:00.352Z,24.30
2022-09-14T18:39:02.486Z,24.30
2022-09-14T18:42:04.944Z,24.30
2022-09-14T18:45:07.674Z,24.30
2022-09-14T18:48:09.919Z,24.30
2022-09-14T18:51:14.069Z,24.30
2022-09-14T18:54:16.644Z,24.30
2022-09-14T18:57:20.036Z,24.30
2022-09-14T19:00:22.197Z,24.30
2022-09-14T19:03:24.279Z,24.30
2022-09-14T19:06:26.463Z,24.30
2022-09-14T19:09:28.537Z,24.20
2022-09-14T19:12:30.891Z,24.30
2022-09-14T19:15:34.173Z,24.20
2022-09-14T19:18:36.613Z,24.20
2022-09-14T19:21:39.002Z,24.20
2022-09-14T19:24:41.980Z,24.20
2022-09-14T19:27:44.219Z,24.20
2022-09-14T19:30:49.145Z,24.30
2022-09-14T19:33:52.733Z,24.20
2022-09-14T19:36:56.811Z,24.20
2022-09-14T19:47:29.418Z,24.30
2022-09-14T19:50:31.749Z,24.20
2022-09-14T19:53:35.694Z,24.20
2022-09-14T19:56:38.678Z,24.20
2022-09-14T19:59:41.174Z,24.20
2022-09-14T20:02:46.060Z,24.20
2022-09-14T20:17:06.559Z,24.20
2022-09-14T20:20:10.576Z,24.20
2022-09-14T20:23:12.785Z,24.20
2022-09-14T20:26:15.814Z,24.20
2022-09-14T20:29:19.484Z,24.20
2022-09-14T20:32:21.611Z,24.20
2022-09-14T20:35:23.854Z,24.20
2022-09-14T20:38:26.190Z,24.20
2022-09-14T20:41:30.832Z,24.20
2022-09-14T20:44:33.270Z,24.20
2022-09-14T20:47:35.502Z,24.20
2022-09-14T20:50:37.761Z,24.20
2022-09-14T20:53:41.578Z,24.20
2022-09-14T21:00:28.949Z,24.20
2022-09-14T21:03:31.590Z,24.20
2022-09-14T21:06:36.848Z,24.10
2022-09-14T21:09:39.290Z,24.10
2022-09-14T21:12:41.713Z,24.20
2022-09-14T21:15:44.632Z,24.20
2022-09-14T21:18:51.770Z,24.20
2022-09-14T21:21:54.509Z,24.10
2022-09-14T21:24:56.673Z,24.10
2022-09-14T21:27:59.291Z,24.20
2022-09-14T21:31:15.339Z,24.10
2022-09-14T21:34:17.828Z,24.20
2022-09-14T21:37:20.069Z,24.10
2022-09-14T21:40:22.274Z,24.20
2022-09-14T21:43:30.724Z,24.10
2022-09-14T21:46:46.428Z,24.10
2022-09-14T21:49:48.712Z,24.10
2022-09-14T21:56:25.817Z,24.10
2022-09-14T21:59:28.065Z,24.10
2022-09-14T22:02:30.344Z,24.10
2022-09-14T22:09:08.608Z,24.10
2022-09-14T22:12:10.844Z,24.10
2022-09-14T22:18:53.675Z,24.10
2022-09-14T22:21:56.759Z,24.10
2022-09-14T22:24:58.855Z,24.10
2022-09-14T22:28:01.073Z,24.10
2022-09-14T22:31:03.420Z,24.00
2022-09-14T22:34:06.066Z,24.10
2022-09-14T22:37:08.550Z,24.00
2022-09-14T22:40:10.954Z,24.00
2022-09-14T22:43:13.085Z,24.00
2022-09-14T22:46:17.078Z,24.00
2022-09-14T22:49:19.300Z,24.00
2022-09-14T22:52:21.611Z,24.00
2022-09-14T22:55:23.737Z,24.00
2022-09-14T22:58:27.533Z,24.00
2022-09-14T23:01:32.842Z,24.00
2022-09-14T23:04:35.038Z,24.00
2022-09-14T23:07:37.260Z,24.00
2022-09-14T23:10:39.779Z,24.00
2022-09-14T23:13:42.660Z,24.00
2022-09-14T23:16:45.700Z,24.00
2022-09-14T23:19:47.960Z,24.00
2022-09-14T23:22:50.026Z,24.00
2022-09-14T23:25:52.180Z,24.00
2022-09-14T23:29:03.629Z,24.00
2022-09-14T23:32:05.921Z,24.00
2022-09-14T23:35:08.466Z,24.00
2022-09-14T23:38:10.583Z,24.00
2022-09-14T23:41:12.627Z,24.00
2022-09-14T23:44:14.728Z,24.00
2022-09-14T23:47:18.281Z,24.00
2022-09-14T23:50:20.460Z,24.00
2022-09-14T23:53:22.627Z,24.00
2022-09-14T23:56:24.907Z,24.00
2022-09-14T23:59:27.017Z,24.00
